M/T Filos — 9HQB8 — position and weather

sailwx.info

Track history (hours):
 
Tides and Currents Weather Stations Pressure Air Temp Water Temp Dewpoint Dewpoint Depression Visibility Wind Speed Wind Dir Waves Ship Positions

M/T Filos

Last reported at 2016-Jul-01 16:33 UTC. Time now 2016-Jul-01 17:14 UTC.
Position N 51°17' E 004°14'.

Length 180 m; draft 7.4 m.

Type: Tanker. MMSI: 224561000.

Date/timePositionNaut miles runAvg speedWind from/ knotsBaromVisibWave heightAir tempDewpointWater temp
2016-Jul-01 16:33N 51°17' E 004°14'0 0.0
2016-Jul-01 15:33N 51°17' E 004°14'0 0.0
2016-Jul-01 14:33N 51°17' E 004°14'0 0.0
2016-Jul-01 13:33N 51°17' E 004°14'0 0.0
2016-Jul-01 12:33N 51°17' E 004°14'0 0.0
2016-Jul-01 11:33N 51°17' E 004°14'0 0.0
2016-Jul-01 10:33N 51°17' E 004°14'0 0.0
2016-Jul-01 09:34N 51°17' E 004°14'0 0.0
2016-Jul-01 08:33N 51°17' E 004°14'0 0.0
2016-Jul-01 07:33N 51°17' E 004°14'0 0.0
2016-Jul-01 06:33N 51°17' E 004°14'0 0.0
2016-Jul-01 05:34N 51°17' E 004°14'0 0.0
2016-Jul-01 04:33N 51°17' E 004°14'0 0.0
2016-Jul-01 03:33N 51°17' E 004°14'0 0.0
2016-Jul-01 02:33N 51°17' E 004°14'0 0.0
2016-Jul-01 01:33N 51°17' E 004°14'0 0.0
2016-Jul-01 00:33N 51°17' E 004°14'0 0.0
2016-Jun-30 23:34N 51°17' E 004°14'0 0.0
2016-Jun-30 22:33N 51°17' E 004°14'0 0.2
2016-Jun-30 21:33N 51°17' E 004°14'2 2.1
2016-Jun-30 20:33N 51°16' E 004°17'2 2.1
2016-Jun-30 19:33N 51°17' E 004°19'8 8.3
2016-Jun-30 18:34N 51°23' E 004°10'7 7.2
2016-Jun-30 17:34N 51°26' E 003°60'9 9.4
2016-Jun-30 16:34N 51°21' E 003°47'9 8.7
2016-Jun-30 15:34N 51°26' E 003°35'7 6.9
2016-Jun-30 14:34N 51°31' E 003°27'10 9.5
2016-Jun-30 13:31N 51°39' E 003°19'6 1.1
2016-Jun-30 07:34N 51°46' E 003°18'3 3.2
2016-Jun-30 06:31N 51°49' E 003°16'148 7.8
2016-Jun-29 11:33N 54°04' E 004°56'1110.4
2016-Jun-29 10:33N 54°05' E 005°14'1111.0
2016-Jun-29 09:32N 54°07' E 005°33'1111.3
2016-Jun-29 08:33N 54°08' E 005°52'4310.8
2016-Jun-29 04:33N 54°12' E 007°05'1010.0
2016-Jun-29 03:33N 54°13' E 007°22'10 9.7
2016-Jun-29 02:33N 54°10' E 007°38'1010.4
2016-Jun-29 01:33N 54°05' E 007°53'1110.7
2016-Jun-29 00:30N 54°01' E 008°11'1212.3
2016-Jun-28 23:33N 53°58' E 008°31'1413.8
2016-Jun-28 22:33N 53°50' E 008°50'1211.7
2016-Jun-28 21:33N 53°54' E 009°09'2 2.1
2016-Jun-28 20:33N 53°55' E 009°11'8 8.1
2016-Jun-28 19:33N 54°02' E 009°18'8 7.9
2016-Jun-28 18:33N 54°10' E 009°24'21 6.6
2016-Jun-28 15:24N 54°22' E 009°52'4 5.3
2016-Jun-28 14:33N 54°21' E 010°00'5 5.0
2016-Jun-28 13:33N 54°22' E 010°08'6 5.9
2016-Jun-28 12:33N 54°27' E 010°14'1110.8
2016-Jun-28 11:30N 54°33' E 010°30'1010.8
2016-Jun-28 10:33N 54°35' E 010°48'1110.8
2016-Jun-28 09:33N 54°36' E 011°06'1110.8
2016-Jun-28 08:33N 54°33' E 011°24'1111.4
2016-Jun-28 07:33N 54°28' E 011°42'1111.2
2016-Jun-28 06:33N 54°27' E 012°01'2110.4
2016-Jun-28 04:33N 54°41' E 012°27'4711.1
2016-Jun-28 00:18N 54°60' E 013°42'810.6
2016-Jun-27 23:33N 55°02' E 013°55'1010.5
2016-Jun-27 22:33N 55°08' E 014°10'1110.7
2016-Jun-27 21:33N 55°17' E 014°22'1110.7
2016-Jun-27 20:33N 55°25' E 014°34'1110.9
2016-Jun-27 19:33N 55°29' E 014°52'1110.9
2016-Jun-27 18:33N 55°32' E 015°10'1110.5
2016-Jun-27 17:33N 55°36' E 015°28'7710.8
2016-Jun-27 10:25N 55°59' E 017°39'910.9
2016-Jun-27 09:33N 56°04' E 017°54'1110.8
2016-Jun-27 08:33N 56°09' E 018°10'  
2016-Jun-24 10:28N 57°25' E 020°20'1112.4
2016-Jun-24 09:33N 57°16' E 020°08'6112.2
2016-Jun-24 04:33N 56°27' E 019°02'1212.1
2016-Jun-24 03:33N 56°18' E 018°47'1212.4
2016-Jun-24 02:33N 56°12' E 018°29'1312.3
2016-Jun-24 01:32N 56°05' E 018°09'1212.3
2016-Jun-24 00:33N 55°59' E 017°51'1212.0
2016-Jun-23 23:33N 55°54' E 017°31'1211.9
2016-Jun-23 22:33N 55°51' E 017°10'1211.7
2016-Jun-23 21:33N 55°48' E 016°50'3611.5
2016-Jun-23 18:27N 55°39' E 015°49'1011.5
2016-Jun-23 17:33N 55°36' E 015°31'1212.1
2016-Jun-23 16:33N 55°33' E 015°11'1211.9
2016-Jun-23 15:33N 55°28' E 014°52'1211.6
2016-Jun-23 14:33N 55°21' E 014°36'1211.9
2016-Jun-23 13:33N 55°12' E 014°21'1111.4
2016-Jun-23 12:33N 55°11' E 014°01'1111.4
2016-Jun-23 11:33N 55°10' E 013°41'1211.8
2016-Jun-23 10:33N 55°10' E 013°21'1111.4
2016-Jun-23 09:33N 55°13' E 013°01'1111.5
2016-Jun-23 08:33N 55°17' E 012°43'10 9.7
2016-Jun-23 07:33N 55°27' E 012°40'18 9.1
2016-Jun-23 05:33N 55°44' E 012°50'1110.7
2016-Jun-23 04:33N 55°54' E 012°45'1110.9
2016-Jun-23 03:33N 56°04' E 012°37'1111.3
2016-Jun-23 02:33N 56°11' E 012°21'1211.9
2016-Jun-23 01:33N 56°18' E 012°03'1511.9
2016-Jun-23 00:20N 56°32' E 011°57'912.0
2016-Jun-22 23:33N 56°41' E 011°53'1212.3
2016-Jun-22 22:33N 56°53' E 011°47'1212.2
2016-Jun-22 21:33N 57°04' E 011°39'1212.0
2016-Jun-22 20:33N 57°15' E 011°32'1212.1
2016-Jun-22 19:33N 57°27' E 011°24'1211.7
2016-Jun-22 18:33N 57°38' E 011°18'1111.1
2016-Jun-22 17:33N 57°49' E 011°12'1111.3
2016-Jun-22 16:33N 57°59' E 011°05'1111.4
2016-Jun-22 15:33N 58°10' E 010°58'1110.8
2016-Jun-22 14:33N 58°20' E 010°51'1111.4
2016-Jun-22 13:33N 58°31' E 010°45'1111.2
2016-Jun-22 12:33N 58°42' E 010°45'1111.1
2016-Jun-22 11:33N 58°53' E 010°45'8 8.4
2016-Jun-22 10:33N 59°01' E 010°50'4 3.9
2016-Jun-22 09:31N 59°01' E 010°58'0 0.0
2016-Jun-22 08:31N 59°01' E 010°58'0 0.0
2016-Jun-22 07:31N 59°01' E 010°58'0 0.0
2016-Jun-22 06:31N 59°01' E 010°58'0 0.0
2016-Jun-22 05:31N 59°01' E 010°58'0 0.0
2016-Jun-22 04:31N 59°01' E 010°58'0 0.0
2016-Jun-22 03:31N 59°01' E 010°58'0 0.0
2016-Jun-22 02:31N 59°01' E 010°58'0 0.0
2016-Jun-22 01:31N 59°01' E 010°58'0 0.0
2016-Jun-22 00:31N 59°01' E 010°58'0 0.0
2016-Jun-21 23:31N 59°01' E 010°58'0 0.0
2016-Jun-21 22:31N 59°01' E 010°58'0 0.0
2016-Jun-21 21:31N 59°01' E 010°58'0 0.0
2016-Jun-21 20:31N 59°01' E 010°58'0 0.0
2016-Jun-21 19:31N 59°01' E 010°58'0 0.0
2016-Jun-21 18:31N 59°01' E 010°58'0 0.0
2016-Jun-21 17:31N 59°01' E 010°58'  
Track history (hours):
 
Tides and Currents Weather Stations Pressure Air Temp Water Temp Dewpoint Dewpoint Depression Visibility Wind Speed Wind Dir Waves Ship Positions

M/T Filos

Last reported at 2016-Jul-01 16:33 UTC. Time now 2016-Jul-01 17:14 UTC.
Position N 51°17' E 004°14'.

Length 180 m; draft 7.4 m.

Type: Tanker. MMSI: 224561000.

Date/timePositionNaut miles runAvg speedWind from/ knotsBaromVisibWave heightAir tempDewpointWater temp
2016-Jul-01 16:33N 51°17' E 004°14'0 0.0
2016-Jul-01 15:33N 51°17' E 004°14'0 0.0
2016-Jul-01 14:33N 51°17' E 004°14'0 0.0
2016-Jul-01 13:33N 51°17' E 004°14'0 0.0
2016-Jul-01 12:33N 51°17' E 004°14'0 0.0
2016-Jul-01 11:33N 51°17' E 004°14'0 0.0
2016-Jul-01 10:33N 51°17' E 004°14'0 0.0
2016-Jul-01 09:34N 51°17' E 004°14'0 0.0
2016-Jul-01 08:33N 51°17' E 004°14'0 0.0
2016-Jul-01 07:33N 51°17' E 004°14'0 0.0
2016-Jul-01 06:33N 51°17' E 004°14'0 0.0
2016-Jul-01 05:34N 51°17' E 004°14'0 0.0
2016-Jul-01 04:33N 51°17' E 004°14'0 0.0
2016-Jul-01 03:33N 51°17' E 004°14'0 0.0
2016-Jul-01 02:33N 51°17' E 004°14'0 0.0
2016-Jul-01 01:33N 51°17' E 004°14'0 0.0
2016-Jul-01 00:33N 51°17' E 004°14'0 0.0
2016-Jun-30 23:34N 51°17' E 004°14'0 0.0
2016-Jun-30 22:33N 51°17' E 004°14'0 0.2
2016-Jun-30 21:33N 51°17' E 004°14'2 2.1
2016-Jun-30 20:33N 51°16' E 004°17'2 2.1
2016-Jun-30 19:33N 51°17' E 004°19'8 8.3
2016-Jun-30 18:34N 51°23' E 004°10'7 7.2
2016-Jun-30 17:34N 51°26' E 003°60'9 9.4
2016-Jun-30 16:34N 51°21' E 003°47'9 8.7
2016-Jun-30 15:34N 51°26' E 003°35'7 6.9
2016-Jun-30 14:34N 51°31' E 003°27'10 9.5
2016-Jun-30 13:31N 51°39' E 003°19'6 1.1
2016-Jun-30 07:34N 51°46' E 003°18'3 3.2
2016-Jun-30 06:31N 51°49' E 003°16'148 7.8
2016-Jun-29 11:33N 54°04' E 004°56'1110.4
2016-Jun-29 10:33N 54°05' E 005°14'1111.0
2016-Jun-29 09:32N 54°07' E 005°33'1111.3
2016-Jun-29 08:33N 54°08' E 005°52'4310.8
2016-Jun-29 04:33N 54°12' E 007°05'1010.0
2016-Jun-29 03:33N 54°13' E 007°22'10 9.7
2016-Jun-29 02:33N 54°10' E 007°38'1010.4
2016-Jun-29 01:33N 54°05' E 007°53'1110.7
2016-Jun-29 00:30N 54°01' E 008°11'1212.3
2016-Jun-28 23:33N 53°58' E 008°31'1413.8
2016-Jun-28 22:33N 53°50' E 008°50'1211.7
2016-Jun-28 21:33N 53°54' E 009°09'2 2.1
2016-Jun-28 20:33N 53°55' E 009°11'8 8.1
2016-Jun-28 19:33N 54°02' E 009°18'8 7.9
2016-Jun-28 18:33N 54°10' E 009°24'21 6.6
2016-Jun-28 15:24N 54°22' E 009°52'4 5.3
2016-Jun-28 14:33N 54°21' E 010°00'5 5.0
2016-Jun-28 13:33N 54°22' E 010°08'6 5.9
2016-Jun-28 12:33N 54°27' E 010°14'1110.8
2016-Jun-28 11:30N 54°33' E 010°30'1010.8
2016-Jun-28 10:33N 54°35' E 010°48'1110.8
2016-Jun-28 09:33N 54°36' E 011°06'1110.8
2016-Jun-28 08:33N 54°33' E 011°24'1111.4
2016-Jun-28 07:33N 54°28' E 011°42'1111.2
2016-Jun-28 06:33N 54°27' E 012°01'2110.4
2016-Jun-28 04:33N 54°41' E 012°27'4711.1
2016-Jun-28 00:18N 54°60' E 013°42'810.6
2016-Jun-27 23:33N 55°02' E 013°55'1010.5
2016-Jun-27 22:33N 55°08' E 014°10'1110.7
2016-Jun-27 21:33N 55°17' E 014°22'1110.7
2016-Jun-27 20:33N 55°25' E 014°34'1110.9
2016-Jun-27 19:33N 55°29' E 014°52'1110.9
2016-Jun-27 18:33N 55°32' E 015°10'1110.5
2016-Jun-27 17:33N 55°36' E 015°28'7710.8
2016-Jun-27 10:25N 55°59' E 017°39'910.9
2016-Jun-27 09:33N 56°04' E 017°54'1110.8
2016-Jun-27 08:33N 56°09' E 018°10'  
2016-Jun-24 10:28N 57°25' E 020°20'1112.4
2016-Jun-24 09:33N 57°16' E 020°08'6112.2
2016-Jun-24 04:33N 56°27' E 019°02'1212.1
2016-Jun-24 03:33N 56°18' E 018°47'1212.4
2016-Jun-24 02:33N 56°12' E 018°29'1312.3
2016-Jun-24 01:32N 56°05' E 018°09'1212.3
2016-Jun-24 00:33N 55°59' E 017°51'1212.0
2016-Jun-23 23:33N 55°54' E 017°31'1211.9
2016-Jun-23 22:33N 55°51' E 017°10'1211.7
2016-Jun-23 21:33N 55°48' E 016°50'3611.5
2016-Jun-23 18:27N 55°39' E 015°49'1011.5
2016-Jun-23 17:33N 55°36' E 015°31'1212.1
2016-Jun-23 16:33N 55°33' E 015°11'1211.9
2016-Jun-23 15:33N 55°28' E 014°52'1211.6
2016-Jun-23 14:33N 55°21' E 014°36'1211.9
2016-Jun-23 13:33N 55°12' E 014°21'1111.4
2016-Jun-23 12:33N 55°11' E 014°01'1111.4
2016-Jun-23 11:33N 55°10' E 013°41'1211.8
2016-Jun-23 10:33N 55°10' E 013°21'1111.4
2016-Jun-23 09:33N 55°13' E 013°01'1111.5
2016-Jun-23 08:33N 55°17' E 012°43'10 9.7
2016-Jun-23 07:33N 55°27' E 012°40'18 9.1
2016-Jun-23 05:33N 55°44' E 012°50'1110.7
2016-Jun-23 04:33N 55°54' E 012°45'1110.9
2016-Jun-23 03:33N 56°04' E 012°37'1111.3
2016-Jun-23 02:33N 56°11' E 012°21'1211.9
2016-Jun-23 01:33N 56°18' E 012°03'1511.9
2016-Jun-23 00:20N 56°32' E 011°57'912.0
2016-Jun-22 23:33N 56°41' E 011°53'1212.3
2016-Jun-22 22:33N 56°53' E 011°47'1212.2
2016-Jun-22 21:33N 57°04' E 011°39'1212.0
2016-Jun-22 20:33N 57°15' E 011°32'1212.1
2016-Jun-22 19:33N 57°27' E 011°24'1211.7
2016-Jun-22 18:33N 57°38' E 011°18'1111.1
2016-Jun-22 17:33N 57°49' E 011°12'1111.3
2016-Jun-22 16:33N 57°59' E 011°05'1111.4
2016-Jun-22 15:33N 58°10' E 010°58'1110.8
2016-Jun-22 14:33N 58°20' E 010°51'1111.4
2016-Jun-22 13:33N 58°31' E 010°45'1111.2
2016-Jun-22 12:33N 58°42' E 010°45'1111.1
2016-Jun-22 11:33N 58°53' E 010°45'8 8.4
2016-Jun-22 10:33N 59°01' E 010°50'4 3.9
2016-Jun-22 09:31N 59°01' E 010°58'0 0.0
2016-Jun-22 08:31N 59°01' E 010°58'0 0.0
2016-Jun-22 07:31N 59°01' E 010°58'0 0.0
2016-Jun-22 06:31N 59°01' E 010°58'0 0.0
2016-Jun-22 05:31N 59°01' E 010°58'0 0.0
2016-Jun-22 04:31N 59°01' E 010°58'0 0.0
2016-Jun-22 03:31N 59°01' E 010°58'0 0.0
2016-Jun-22 02:31N 59°01' E 010°58'0 0.0
2016-Jun-22 01:31N 59°01' E 010°58'0 0.0
2016-Jun-22 00:31N 59°01' E 010°58'0 0.0
2016-Jun-21 23:31N 59°01' E 010°58'0 0.0
2016-Jun-21 22:31N 59°01' E 010°58'0 0.0
2016-Jun-21 21:31N 59°01' E 010°58'0 0.0
2016-Jun-21 20:31N 59°01' E 010°58'0 0.0
2016-Jun-21 19:31N 59°01' E 010°58'0 0.0
2016-Jun-21 18:31N 59°01' E 010°58'0 0.0
2016-Jun-21 17:31N 59°01' E 010°58'  

Dump ship's entire track history